AirNav   Pilot Hours Calculator
 
 624 users online  

9PS9 St Mary Medical Center Heliport
Langhorne, Pennsylvania, USA

GOING TO LANGHORNE?


FAA INFORMATION EFFECTIVE 05 DECEMBER 2019

Location

FAA Identifier: 9PS9
Lat/Long: 40-12-07.9200N 074-55-22.5800W
40-12.132000N 074-55.376333W
40.2022000,-74.9229389
(estimated)
Elevation: 150 ft. / 46 m (estimated)
Variation: 12W (1995)
From city: 1 mile N of LANGHORNE, PA
Time zone: UTC -5 (UTC -4 during Daylight Saving Time)
Zip code: 19047

Heliport Operations

Heliport use: Private use. Permission required prior to landing
Activation date: 07/1997
Control tower: no
ARTCC: NEW YORK CENTER
FSS: WILLIAMSPORT FLIGHT SERVICE STATION
Attendance: CONTINUOUS
Wind indicator: yes
Segmented circle: yes
Lights: FOR PERIMETER LGTS CALL 215-750-7961.

Heliport Communications

WX ASOS at TTN (7 nm NE): 126.775 (609-538-8690)
WX ASOS at PNE (8 nm SW): PHONE 215-677-0146
WX ASOS at DYL (12 nm NW): 118.875 (215-345-0392)
WX ASOS at VAY (16 nm S): 119.325 (609-267-1176)
WX AWOS-3 at LOM (16 nm W): 118.925 (215-646-1068)

Nearby radio navigation aids

VOR radial/distance  VOR name  Freq  Var
ARDr203/3.1YARDLEY VOR/DME108.2010W
GXUr320/18.9MC GUIRE VORTAC110.6012W
RBVr280/19.6ROBBINSVILLE VORTAC113.8010W
SBJr210/24.3SOLBERG VOR/DME112.9010W
PTWr101/29.2POTTSTOWN VORTAC116.5009W
CYNr326/32.3COYLE VORTAC113.4010W
COLr270/35.6COLTS NECK VOR/DME115.4011W
BWZr198/36.1BROADWAY VOR/DME114.2011W
OODr037/38.2WOODSTOWN VORTAC112.8010W
MXEr073/38.3MODENA VORTAC113.2009W
FJCr152/39.7ALLENTOWN VORTAC117.5010W
VCNr013/39.9CEDAR LAKE VOR/DME115.2010W

 
NDB name  Hdg/Dist  Freq  Var  ID
AMBLER087/17.227512WING .. -. --.
LAKEHURST300/28.639611WNEL -. . .-..
CHATHAM228/39.425413WCAT -.-. .- -

Heliport Services

Runway Information

Helipad H1

Dimensions: 40 x 40 ft. / 12 x 12 m
Surface: concrete
Runway edge lights: PERI
Latitude: 40-12.132000N
Longitude: 074-55.376333W
Elevation: 150.0 ft.
Traffic pattern: leftleft

Heliport Ownership and Management from official FAA records

Ownership: Privately-owned
Owner: ST MARY MEDICAL CENTER
1201 LANGHORNE-NEWTOWN RD
LANGHORNE, PA 19047
Phone 215-710-4026
Manager: DIRECTOR PLANT OPERATIONS
1201 LANGHORNE - NEWTOWN RD
LANGHORNE, PA 19047
Phone 215-710-4026

Additional Remarks

A52-H1 HOSPITAL BLDGS W OF PAD.
FOR CD CTC PHILADELPHIA APCH AT 800-354-9884.
APP HDG 230 DEG, DEP HDG 050 DEG.

Instrument Procedures

There are no published instrument procedures at 9PS9.

Some nearby airports with instrument procedures:

KTTN - Trenton Mercer Airport (7 nm NE)
KPNE - Northeast Philadelphia Airport (8 nm SW)
KDYL - Doylestown Airport (12 nm NW)
N87 - Trenton-Robbinsville Airport (15 nm E)
KVAY - South Jersey Regional Airport (16 nm S)
KLOM - Wings Field Airport (16 nm W)
39N - Princeton Airport (17 nm NE)
N14 - Flying W Airport (17 nm S)
KWRI - McGuire Field (Joint Base Mc Guire Dix Lakehurst) Airport (19 nm SE)
 
Loc | Ops | Rwys | IFR | FBO | Links
Com | Nav | Svcs | Stats | Notes
Area around 9PS9 (St Mary Medical Center Heliport)
 
Road maps at: MapQuest Bing Google
 
Aerial photo
No photo
 
Sectional chart

 
Airport distance calculator
Flying to St Mary Medical Center Heliport? Find the distance to fly.

From to 9PS9

Sunrise and sunset
Times for 07-Dec-2019
 Local
(UTC-5)
 Zulu
(UTC)
Morning civil twilight06:3911:39
Sunrise07:1012:10
Sunset16:3321:33
Evening civil twilight17:0322:03

Current date and time
Zulu (UTC)  08-Dec-2019 04:03:09
Local (UTC-5)  07-Dec-2019 23:03:09
 
METAR
KTTN 
7nm NE 
ASOS 133.70 609-538-8690
080353Z AUTO 00000KT 10SM CLR M04/M09 A3050 RMK AO2 SLP323 T10391094
KPNE 
8nm SW 
080354Z AUTO 00000KT 10SM CLR M02/M08 A3052 RMK AO2 SLP334 T10221083
KDYL 
12nm NW 
080354Z AUTO 00000KT 10SM CLR M04/M09 A3048 RMK AO2 SLP329 T10391089
KLOM 
16nm W 
080355Z AUTO 00000KT 10SM CLR M05/M06 A3049 RMK AO2 T10491060
KVAY 
17nm S 
ASOS 119.325 609-267-1176
080354Z AUTO 00000KT 10SM CLR M05/M08 A3051 RMK AO2 SLP331 T10501083
KWRI 
19nm SE 
080356Z AUTO 00000KT 10SM CLR M04/M08 A3049 RMK AO2 SLP326 T10431076 $
TAF
KTTN 
7nm NE 
071720Z 0718/0818 34008KT P6SM SCT250 FM072300 VRB02KT P6SM SKC FM081600 18006KT P6SM SCT250
KPNE 
8nm SW 
071720Z 0718/0818 35008KT P6SM SCT250 FM072300 VRB02KT P6SM SKC FM081600 17006KT P6SM SCT250
KWRI 
19nm SE 
080200Z 0802/0908 VRB05KT 9999 FEW250 QNH3045INS BECMG 0814/0815 18008KT 9999 SCT200 QNH3027INS BECMG 0901/0902 18006KT 9999 BKN045 OVC080 QNH3018INS TX07/0819Z TNM06/0812Z
NOTAMs
Click for the latest NOTAMs
NOTAMs are issued by the DoD/FAA and will open in a separate window not controlled by AirNav.

 

 
 

Would you like to see your business listed on this page?

 If your business provides an interesting product or service to pilots, flight crews, aircraft, or users of the St Mary Medical Center Heliport, you should consider listing it here.  To start the listing process, click on the button below
 
Add a business
 

Other Pages about St Mary Medical Center Heliport

Update a link
 
Copyright © AirNav, LLC. All rights reserved. Privacy Policy  Contact